EWG205 LSZH-EDDS
Flight info
| Callsign | EWG205 |
|---|---|
| Flight time | N/A |
| Altitude | 17000 |
| Route | DEGES Z1 BODAN/N0373F160 Z1 ALAGO Z4 ARSUT T125 REUTL REUTL5A |
| Aircraft | A319/M-SDE3FGHIRWY/LB1 |
Departure
| Time | 2026-04-30 14:55 |
|---|---|
| Airport | Zürich Airport (LSZH) |
Arrival
| Time | N/A |
|---|---|
| Airport | Stuttgart Airport (EDDS) |
| Time | Latitude | Longitude | Altitude | Speed | Heading |
|---|---|---|---|---|---|
| 2026-04-30 14:36 | 47.45414 | 8.55872 | 1397 ft | 0 kts | 184° |
| 2026-04-30 14:46 | 47.45437 | 8.55874 | 1400 ft | 4 kts | 183° |
| 2026-04-30 14:46 | 47.45464 | 8.55875 | 1401 ft | 4 kts | 178° |
| 2026-04-30 14:46 | 47.45489 | 8.55872 | 1398 ft | 4 kts | 161° |
| 2026-04-30 14:46 | 47.45512 | 8.55852 | 1405 ft | 4 kts | 150° |
| 2026-04-30 14:47 | 47.45536 | 8.55841 | 1407 ft | 4 kts | 182° |
| 2026-04-30 14:47 | 47.45562 | 8.55845 | 1404 ft | 2 kts | 186° |
| 2026-04-30 14:47 | 47.45564 | 8.55845 | 1403 ft | 0 kts | 186° |
| 2026-04-30 14:49 | 47.45563 | 8.55845 | 1404 ft | 1 kts | 186° |
| 2026-04-30 14:49 | 47.45551 | 8.55843 | 1403 ft | 4 kts | 186° |
| 2026-04-30 14:49 | 47.45516 | 8.55808 | 1405 ft | 12 kts | 238° |
| 2026-04-30 14:50 | 47.45508 | 8.55457 | 1403 ft | 16 kts | 218° |
| 2026-04-30 14:50 | 47.45417 | 8.55374 | 1398 ft | 15 kts | 215° |
| 2026-04-30 14:51 | 47.45410 | 8.55176 | 1405 ft | 15 kts | 289° |
| 2026-04-30 14:51 | 47.45478 | 8.54891 | 1400 ft | 35 kts | 286° |
| 2026-04-30 14:51 | 47.45637 | 8.54164 | 1400 ft | 38 kts | 288° |
| 2026-04-30 14:52 | 47.45711 | 8.53835 | 1400 ft | 25 kts | 293° |
| 2026-04-30 14:52 | 47.45888 | 8.53807 | 1395 ft | 0 kts | 95° |
| 2026-04-30 14:54 | 47.45888 | 8.53811 | 1395 ft | 0 kts | 95° |
| 2026-04-30 14:54 | 47.45839 | 8.54542 | 1400 ft | 99 kts | 96° |
| 2026-04-30 14:55 | 47.45631 | 8.57425 | 2011 ft | 150 kts | 94° |
| 2026-04-30 14:55 | 47.45508 | 8.58946 | 2760 ft | 150 kts | 93° |
| 2026-04-30 14:55 | 47.45202 | 8.62054 | 3983 ft | 157 kts | 91° |
| 2026-04-30 14:56 | 47.45638 | 8.65435 | 4877 ft | 192 kts | 80° |
| 2026-04-30 14:56 | 47.45878 | 8.70099 | 5454 ft | 256 kts | 85° |
| 2026-04-30 14:57 | 47.45862 | 8.72788 | 6333 ft | 264 kts | 95° |
| 2026-04-30 14:57 | 47.45374 | 8.78263 | 8136 ft | 274 kts | 98° |
| 2026-04-30 14:58 | 47.44787 | 8.83915 | 9983 ft | 283 kts | 99° |
| 2026-04-30 14:58 | 47.44478 | 8.86847 | 10591 ft | 298 kts | 98° |
| 2026-04-30 14:58 | 47.43845 | 8.93366 | 11348 ft | 338 kts | 97° |
| 2026-04-30 14:59 | 47.43184 | 9.00344 | 12936 ft | 347 kts | 97° |
| 2026-04-30 15:00 | 47.44410 | 9.10565 | 15164 ft | 350 kts | 58° |
| 2026-04-30 15:00 | 47.46969 | 9.16704 | 16663 ft | 354 kts | 58° |
| 2026-04-30 15:01 | 47.49606 | 9.22984 | 17247 ft | 369 kts | 57° |
| 2026-04-30 15:01 | 47.50509 | 9.25143 | 17247 ft | 377 kts | 58° |
| 2026-04-30 15:01 | 47.53733 | 9.32928 | 17253 ft | 381 kts | 58° |
| 2026-04-30 15:02 | 47.55109 | 9.36272 | 17246 ft | 380 kts | 58° |
| 2026-04-30 15:02 | 47.56600 | 9.39487 | 17244 ft | 380 kts | 49° |
| 2026-04-30 15:03 | 47.63361 | 9.45230 | 17242 ft | 383 kts | 12° |
| 2026-04-30 15:03 | 47.68664 | 9.45678 | 17243 ft | 381 kts | 4° |
| 2026-04-30 15:04 | 47.73965 | 9.45958 | 17230 ft | 381 kts | 5° |
| 2026-04-30 15:04 | 47.81932 | 9.45593 | 17249 ft | 387 kts | 349° |
| 2026-04-30 15:05 | 47.89779 | 9.42718 | 17247 ft | 388 kts | 349° |
| 2026-04-30 15:06 | 47.95033 | 9.40785 | 17261 ft | 389 kts | 349° |
| 2026-04-30 15:06 | 48.00293 | 9.38862 | 17268 ft | 389 kts | 349° |
| 2026-04-30 15:07 | 48.05545 | 9.36944 | 17261 ft | 389 kts | 349° |
| 2026-04-30 15:07 | 48.09926 | 9.35339 | 17251 ft | 390 kts | 348° |
| 2026-04-30 15:08 | 48.15149 | 9.33043 | 17264 ft | 397 kts | 336° |
| 2026-04-30 15:08 | 48.22091 | 9.26977 | 16857 ft | 376 kts | 332° |
| 2026-04-30 15:09 | 48.26549 | 9.23018 | 15349 ft | 369 kts | 333° |
| 2026-04-30 15:09 | 48.30925 | 9.19119 | 13584 ft | 363 kts | 332° |
| 2026-04-30 15:10 | 48.35030 | 9.15452 | 13174 ft | 321 kts | 332° |
| 2026-04-30 15:11 | 48.42332 | 9.08942 | 11219 ft | 299 kts | 333° |
| 2026-04-30 15:11 | 48.45906 | 9.05761 | 10042 ft | 297 kts | 333° |
| 2026-04-30 15:12 | 48.51189 | 9.01033 | 8205 ft | 291 kts | 333° |
| 2026-04-30 15:13 | 48.54475 | 8.98069 | 7707 ft | 262 kts | 333° |
| 2026-04-30 15:14 | 48.60733 | 8.92905 | 5747 ft | 243 kts | 360° |
| 2026-04-30 15:14 | 48.64103 | 8.96656 | 4517 ft | 209 kts | 76° |
| 2026-04-30 15:16 | 48.66000 | 9.06540 | 3231 ft | 172 kts | 75° |
| 2026-04-30 15:17 | 48.67161 | 9.12606 | 2369 ft | 137 kts | 75° |
| 2026-04-30 15:18 | 48.68454 | 9.19326 | 1468 ft | 131 kts | 77° |
| 2026-04-30 15:19 | 48.69064 | 9.22605 | 1225 ft | 55 kts | 74° |